Time;durP1;ratioP1;P1;durP2;ratioP2;P2;SDS_P1;SDS_P2;PMS_P1;PMS_P2;Temp;Humidity;BMP_temperature;BMP_pressure;BME280_temperature;BME280_humidity;BME280_pressure;Samples;Min_cycle;Max_cycle;Signal;HPM_P1;HPM_P2
2022/11/27 00:01:15;;;;;;;25.60;23.00;;;;;;;10.16;74.65;101249.72;5043055;28;20049;-67
2022/11/27 00:03:42;;;;;;;21.53;20.03;;;;;;;10.19;74.61;101257.56;5034896;28;20045;-67
2022/11/27 00:06:15;;;;;;;23.70;21.97;;;;;;;10.10;74.70;101245.16;5041026;28;20045;-66
2022/11/27 00:08:43;;;;;;;20.40;19.10;;;;;;;10.09;74.97;101240.69;5041657;28;20045;-67
2022/11/27 00:11:17;;;;;;;20.53;19.00;;;;;;;10.02;74.77;101231.69;5049422;28;20052;-66
2022/11/27 00:13:44;;;;;;;21.97;20.20;;;;;;;10.07;74.89;101234.50;5041837;28;20049;-67
2022/11/27 00:16:13;;;;;;;19.97;18.07;;;;;;;10.05;74.65;101236.75;5034745;28;20056;-66
2022/11/27 00:18:40;;;;;;;22.63;20.43;;;;;;;10.05;75.01;101233.94;5039335;28;20557;-67
2022/11/27 00:21:15;;;;;;;20.17;18.60;;;;;;;9.99;75.17;101240.56;5038679;28;20053;-67
2022/11/27 00:23:42;;;;;;;24.13;21.77;;;;;;;10.00;75.19;101228.28;5041035;28;20046;-66
2022/11/27 00:26:10;;;;;;;21.07;19.00;;;;;;;9.98;75.25;101241.66;5044710;28;20552;-66
2022/11/27 00:28:37;;;;;;;22.40;20.20;;;;;;;9.91;75.29;101229.84;5044741;28;20063;-65
2022/11/27 00:31:30;;;;;;;24.10;21.43;;;;;;;9.87;75.41;101231.47;5045127;28;20076;-66
2022/11/27 00:34:01;;;;;;;21.73;20.20;;;;;;;9.91;75.41;101229.84;5040858;28;20072;-66
2022/11/27 00:36:29;;;;;;;23.37;21.57;;;;;;;9.90;75.32;101230.97;5043383;28;20407;-66
2022/11/27 00:38:56;;;;;;;33.90;30.93;;;;;;;9.87;75.51;101228.69;5044195;28;20053;-65
2022/11/27 00:41:26;;;;;;;23.20;21.27;;;;;;;9.86;75.57;101222.25;5032862;28;20049;-66
2022/11/27 00:43:54;;;;;;;26.45;23.75;;;;;;;9.82;75.54;101220.25;5043714;28;20416;-66
2022/11/27 00:46:24;;;;;;;25.13;22.87;;;;;;;9.82;75.36;101217.47;5044782;28;20392;-64
2022/11/27 00:48:55;;;;;;;26.30;23.80;;;;;;;9.80;75.64;101211.28;5035661;28;20555;-65
2022/11/27 00:51:23;;;;;;;23.53;21.53;;;;;;;9.80;75.49;101219.66;5037732;28;20060;-66
2022/11/27 00:53:51;;;;;;;23.00;21.00;;;;;;;9.78;75.49;101202.34;5042897;28;20056;-66
2022/11/27 00:56:22;;;;;;;21.50;19.70;;;;;;;9.70;75.71;101204.47;5040468;28;20040;-66
2022/11/27 00:58:49;;;;;;;;;;;;;;;9.41;76.55;101202.97;5043736;28;20414;-66
2022/11/27 01:01:24;;;;;;;20.57;18.93;;;;;;;9.55;76.16;101201.50;5053538;28;19921;-67
2022/11/27 01:03:51;;;;;;;19.80;18.30;;;;;;;9.60;76.29;101200.72;5035234;28;20472;-66
2022/11/27 01:06:19;;;;;;;20.93;19.03;;;;;;;9.61;76.07;101197.69;5034396;28;20446;-66
2022/11/27 01:08:46;;;;;;;19.83;17.90;;;;;;;9.63;76.29;101195.47;5036715;28;20047;-66
2022/11/27 01:11:25;;;;;;;20.43;18.73;;;;;;;9.50;76.15;101179.09;5036143;28;20053;-67
2022/11/27 01:13:55;;;;;;;23.23;21.30;;;;;;;9.63;75.97;101189.88;5044506;28;20052;-66
2022/11/27 01:16:25;;;;;;;25.35;22.75;;;;;;;9.60;75.84;101189.56;5041215;28;20045;-66
2022/11/27 01:18:54;;;;;;;25.23;22.67;;;;;;;9.66;75.68;101194.09;5045645;28;20049;-66
2022/11/27 01:21:21;;;;;;;22.80;20.63;;;;;;;9.63;75.68;101187.09;5041841;28;20071;-66
2022/11/27 01:23:48;;;;;;;23.93;21.80;;;;;;;9.70;75.46;101201.69;5033231;28;20061;-66
2022/11/27 01:26:17;;;;;;;26.10;23.90;;;;;;;9.72;75.41;101199.50;5032467;28;20049;-66
2022/11/27 01:28:44;;;;;;;25.13;22.77;;;;;;;9.72;75.30;101190.28;5033428;28;20072;-66
2022/11/27 01:31:17;;;;;;;26.47;22.53;;;;;;;9.69;75.12;101176.84;5038158;28;20049;-66
2022/11/27 01:33:45;;;;;;;24.23;22.20;;;;;;;9.72;75.15;101185.53;5044331;28;20071;-66
2022/11/27 01:36:14;;;;;;;24.43;22.30;;;;;;;9.73;75.15;101191.97;5040632;28;20045;-66
2022/11/27 01:38:41;;;;;;;25.43;22.97;;;;;;;9.72;75.12;101196.72;5040214;28;20383;-66
2022/11/27 01:41:20;;;;;;;40.67;37.60;;;;;;;9.64;74.98;101186.00;5033167;28;20045;-66
2022/11/27 01:43:53;;;;;;;22.48;20.73;;;;;;;9.66;75.04;101205.25;5034802;28;20053;-66
2022/11/27 01:46:31;;;;;;;22.67;20.77;;;;;;;9.65;75.13;101210.00;5047217;28;20049;-66
2022/11/27 01:49:10;;;;;;;24.30;21.93;;;;;;;9.55;75.36;101195.91;5040130;28;20484;-66
2022/11/27 01:51:49;;;;;;;24.50;22.00;;;;;;;9.62;75.34;101216.09;5040325;28;20064;-65
2022/11/27 01:54:17;;;;;;;22.93;21.03;;;;;;;9.59;75.38;101207.41;5036486;28;20492;-66
2022/11/27 01:56:49;;;;;;;24.67;22.37;;;;;;;9.49;75.44;101191.38;5030726;28;20057;-66
2022/11/27 01:59:17;;;;;;;21.80;20.13;;;;;;;9.54;75.56;101202.59;5033040;28;20068;-66
2022/11/27 02:01:44;;;;;;;21.50;19.63;;;;;;;9.45;75.82;101196.63;5034247;28;20049;-66
2022/11/27 02:04:11;;;;;;;21.70;19.60;;;;;;;9.37;75.63;101190.66;5045960;28;20112;-66
2022/11/27 02:06:38;;;;;;;21.93;19.97;;;;;;;9.38;76.23;101193.19;5040056;28;20400;-66
2022/11/27 02:09:05;;;;;;;18.30;16.97;;;;;;;9.36;76.14;101195.38;5041769;28;20056;-66
2022/11/27 02:11:45;;;;;;;22.20;20.30;;;;;;;9.35;76.50;101192.84;5034654;28;20045;-66
2022/11/27 02:14:21;;;;;;;17.67;16.50;;;;;;;9.34;76.46;101191.16;5015430;28;20468;-66
2022/11/27 02:17:09;;;;;;;18.37;17.27;;;;;;;9.30;76.51;101178.81;5038770;28;20041;-66
2022/11/27 02:20:10;;;;;;;18.83;17.60;;;;;;;9.27;76.38;101179.38;5046577;28;20045;-66
2022/11/27 02:23:12;;;;;;;18.80;17.47;;;;;;;9.23;76.72;101191.03;5032260;28;20099;-66
2022/11/27 02:26:00;;;;;;;18.10;16.97;;;;;;;9.17;76.86;101192.03;5051494;28;20041;-66
2022/11/27 02:28:48;;;;;;;19.43;18.20;;;;;;;9.13;77.13;101188.09;5036689;28;20056;-66
2022/11/27 02:31:21;;;;;;;20.00;18.43;;;;;;;9.17;77.06;101191.19;5051481;28;20385;-66
2022/11/27 02:33:52;;;;;;;20.07;18.83;;;;;;;9.10;77.01;101180.22;5038120;28;20577;-66
2022/11/27 02:36:28;;;;;;;18.83;17.73;;;;;;;9.15;77.07;101183.09;5039332;28;20049;-66
2022/11/27 02:39:03;;;;;;;22.80;20.70;;;;;;;9.16;76.97;101187.56;5041753;28;20052;-65
2022/11/27 02:41:44;;;;;;;20.37;18.70;;;;;;;9.10;76.92;101187.75;5032452;28;20057;-67
2022/11/27 02:44:11;;;;;;;;;;;;;;;8.89;77.64;101189.34;5040944;28;20059;-65
2022/11/27 02:46:40;;;;;;;17.80;16.70;;;;;;;9.08;77.25;101188.00;5038555;28;19927;-66
2022/11/27 02:49:15;;;;;;;23.90;21.80;;;;;;;9.10;77.32;101187.75;5046913;28;20099;-66
2022/11/27 02:51:56;;;;;;;21.97;20.03;;;;;;;9.04;77.23;101170.09;5034755;28;20420;-66
2022/11/27 02:54:26;;;;;;;18.07;16.97;;;;;;;8.98;77.42;101159.97;5032474;28;20045;-66
2022/11/27 02:56:56;;;;;;;22.83;21.03;;;;;;;9.04;77.40;101169.25;5032945;28;20053;-66
2022/11/27 02:59:28;;;;;;;20.20;18.73;;;;;;;8.95;77.82;101163.25;5041892;28;20072;-66
2022/11/27 03:01:59;;;;;;;19.97;18.67;;;;;;;8.91;77.78;101154.56;5043604;28;20059;-66
2022/11/27 03:04:33;;;;;;;19.03;17.77;;;;;;;8.93;77.71;101140.41;5038801;28;20062;-66
2022/11/27 03:07:08;;;;;;;23.10;21.30;;;;;;;8.91;77.80;101140.66;5048172;28;20048;-66
2022/11/27 03:09:38;;;;;;;22.33;20.53;;;;;;;8.90;77.89;101152.91;5036139;28;20051;-66
2022/11/27 03:12:08;;;;;;;18.97;17.67;;;;;;;8.81;78.17;101142.44;5036887;28;20045;-66
2022/11/27 03:14:38;;;;;;;21.35;19.92;;;;;;;8.88;77.77;101148.69;5036646;28;20061;-66
2022/11/27 03:17:26;;;;;;;22.63;20.50;;;;;;;8.75;78.11;101122.88;5036792;28;20049;-66
2022/11/27 03:19:59;;;;;;;20.80;19.40;;;;;;;8.81;78.19;101143.28;5037088;28;20057;-65
2022/11/27 03:22:26;;;;;;;19.07;18.03;;;;;;;8.74;78.41;101125.91;5038045;28;20504;-66
2022/11/27 03:24:54;;;;;;;19.03;17.80;;;;;;;8.75;78.37;101131.22;5040467;28;20057;-66
2022/11/27 03:27:28;;;;;;;23.77;21.87;;;;;;;8.77;78.23;101126.25;5040903;28;20048;-65
2022/11/27 03:30:01;;;;;;;19.00;18.00;;;;;;;8.76;78.14;101127.34;5037998;28;20053;-66
2022/11/27 03:32:29;;;;;;;21.47;19.53;;;;;;;8.77;78.33;101117.88;5044589;28;20049;-66
2022/11/27 03:34:56;;;;;;;21.10;19.60;;;;;;;8.75;78.24;101111.75;5045091;28;20066;-66
2022/11/27 03:37:23;;;;;;;21.83;20.13;;;;;;;8.68;78.39;101126.91;5042219;28;20048;-66
2022/11/27 03:39:50;;;;;;;20.80;19.33;;;;;;;8.68;78.15;101127.78;5038734;28;20178;-65
2022/11/27 03:42:37;;;;;;;20.67;19.17;;;;;;;8.80;77.59;101130.47;5048416;28;20063;-67
2022/11/27 03:45:13;;;;;;;18.80;17.60;;;;;;;8.89;77.45;101133.63;5045992;28;20037;-66
2022/11/27 03:47:43;;;;;;;20.90;19.30;;;;;;;8.96;77.32;101142.69;5034188;28;20056;-66
2022/11/27 03:50:28;;;;;;;24.27;21.70;;;;;;;8.91;77.02;101131.47;5052121;28;20055;-66
2022/11/27 03:53:12;;;;;;;20.77;19.07;;;;;;;8.85;76.91;101121.34;5055768;28;20049;-65
2022/11/27 03:56:17;;;;;;;21.60;19.60;;;;;;;8.85;77.01;101138.88;5055915;28;20359;-66
2022/11/27 03:59:03;;;;;;;21.10;19.23;;;;;;;8.75;77.16;101131.22;5043997;28;20433;-66
2022/11/27 04:01:31;;;;;;;22.90;20.87;;;;;;;8.84;77.24;101141.94;5045125;28;20053;-66
2022/11/27 04:03:57;;;;;;;21.83;20.10;;;;;;;8.83;77.28;101134.69;5039559;28;20579;-65
2022/11/27 04:06:24;;;;;;;20.63;19.13;;;;;;;8.86;77.03;101150.88;5051122;28;20083;-66
2022/11/27 04:08:51;;;;;;;19.37;18.10;;;;;;;8.82;77.12;101124.63;5053921;28;20502;-67
2022/11/27 04:11:18;;;;;;;18.87;17.83;;;;;;;8.76;77.32;101129.28;5042225;28;20060;-66
2022/11/27 04:13:45;;;;;;;21.37;19.43;;;;;;;8.86;77.31;101131.41;5044497;28;20049;-65
2022/11/27 04:16:12;;;;;;;19.10;17.77;;;;;;;8.84;77.17;101128.84;5039337;28;20048;-65
2022/11/27 04:18:39;;;;;;;21.63;20.13;;;;;;;8.91;76.81;101125.88;5037059;28;20411;-66
2022/11/27 04:21:05;;;;;;;20.80;19.60;;;;;;;9.03;76.51;101135.00;5049508;28;20059;-66
2022/11/27 04:23:32;;;;;;;20.23;18.83;;;;;;;9.09;76.46;101135.88;5042263;28;20064;-67
2022/11/27 04:25:59;;;;;;;19.97;18.53;;;;;;;9.13;76.18;101135.16;5041559;28;20061;-66
2022/11/27 04:28:26;;;;;;;19.10;17.90;;;;;;;9.15;76.05;101132.91;5041270;28;20541;-66
2022/11/27 04:30:53;;;;;;;20.33;19.00;;;;;;;9.14;76.15;101131.25;5052161;28;20041;-66
2022/11/27 04:33:20;;;;;;;20.70;19.10;;;;;;;9.11;76.35;101120.63;5034812;28;20141;-67
2022/11/27 04:35:48;;;;;;;21.97;20.47;;;;;;;9.18;76.10;101112.06;5038464;28;20057;-66
2022/11/27 04:38:15;;;;;;;20.33;18.67;;;;;;;9.10;75.95;101110.56;5043767;28;20045;-66
2022/11/27 04:40:42;;;;;;;20.97;19.40;;;;;;;9.28;75.78;101119.72;5039361;28;20049;-66
2022/11/27 04:43:09;;;;;;;19.47;18.13;;;;;;;9.38;75.43;101122.66;5042162;28;20404;-66
2022/11/27 04:45:40;;;;;;;18.40;17.17;;;;;;;9.62;74.99;101123.22;5040363;28;20051;-66
2022/11/27 04:48:06;;;;;;;16.93;15.70;;;;;;;9.88;74.38;101129.94;5052909;28;20049;-66
2022/11/27 04:50:33;;;;;;;16.43;15.33;;;;;;;9.99;73.74;101105.81;5053003;28;20053;-66
2022/11/27 04:53:00;;;;;;;17.77;16.37;;;;;;;10.14;73.25;101106.78;5039867;28;20057;-66
2022/11/27 04:55:27;;;;;;;18.37;17.07;;;;;;;10.28;72.34;101114.75;5033464;28;20044;-66
2022/11/27 04:57:54;;;;;;;17.97;16.63;;;;;;;10.42;71.83;101107.63;5035729;28;20056;-66
2022/11/27 05:00:21;;;;;;;17.07;15.97;;;;;;;10.42;71.09;101102.03;5044914;28;20045;-66
2022/11/27 05:02:49;;;;;;;19.17;17.97;;;;;;;10.25;70.99;101084.53;5039374;28;20053;-67
2022/11/27 05:05:16;;;;;;;16.57;15.67;;;;;;;10.07;71.52;101106.16;5036757;28;20053;-66
2022/11/27 05:07:43;;;;;;;18.97;17.83;;;;;;;9.87;71.94;101081.66;5039122;28;20053;-65
2022/11/27 05:10:10;;;;;;;17.90;16.60;;;;;;;9.72;72.56;101090.72;5042103;28;20049;-66
2022/11/27 05:12:36;;;;;;;17.10;15.97;;;;;;;9.90;72.41;101091.47;5042569;28;20042;-67
2022/11/27 05:15:04;;;;;;;18.63;17.37;;;;;;;9.91;72.17;101091.22;5039475;28;20044;-67
2022/11/27 05:17:30;;;;;;;18.83;17.67;;;;;;;9.85;72.18;101088.63;5044665;28;20374;-67
2022/11/27 05:19:59;;;;;;;17.33;16.23;;;;;;;9.78;72.21;101099.13;5032923;28;20045;-66
2022/11/27 05:22:25;;;;;;;19.53;18.23;;;;;;;9.82;72.32;101091.94;5039064;28;20057;-65
2022/11/27 05:24:52;;;;;;;18.30;17.00;;;;;;;9.84;72.00;101073.81;5046972;28;20060;-66
2022/11/27 05:27:19;;;;;;;20.20;18.73;;;;;;;9.86;71.98;101080.00;5036439;28;20068;-66
2022/11/27 05:29:46;;;;;;;22.90;20.97;;;;;;;9.86;71.85;101093.94;5040863;28;20058;-66
2022/11/27 05:32:13;;;;;;;32.27;30.60;;;;;;;9.83;71.82;101083.31;5039213;28;20519;-66
2022/11/27 05:34:39;;;;;;;15.90;15.17;;;;;;;9.78;72.05;101101.91;5048520;28;20052;-66
2022/11/27 05:37:06;;;;;;;19.20;17.90;;;;;;;9.73;72.26;101094.34;5033632;28;20399;-67
2022/11/27 05:39:33;;;;;;;21.10;19.90;;;;;;;9.73;72.28;101086.81;5035418;28;20049;-66
2022/11/27 05:42:00;;;;;;;22.97;21.63;;;;;;;9.77;72.08;101094.66;5034223;28;20511;-66
2022/11/27 05:44:27;;;;;;;19.57;18.20;;;;;;;9.72;72.05;101087.94;5038376;28;20049;-65
2022/11/27 05:46:55;;;;;;;19.03;17.83;;;;;;;9.63;72.30;101092.28;5035867;28;20046;-66
2022/11/27 05:49:22;;;;;;;17.63;16.53;;;;;;;9.30;72.82;101048.69;5033593;28;20055;-66
2022/11/27 05:51:49;;;;;;;18.13;17.10;;;;;;;9.37;73.37;101076.38;5042011;28;20042;-66
2022/11/27 05:54:18;;;;;;;19.17;17.87;;;;;;;9.30;73.49;101064.56;5032074;28;20150;-66
2022/11/27 05:56:45;;;;;;;19.13;17.80;;;;;;;9.41;73.71;101074.75;5040087;28;20503;-66
2022/11/27 05:59:11;;;;;;;17.43;16.30;;;;;;;9.28;73.73;101064.81;5032739;28;20049;-66
2022/11/27 06:01:38;;;;;;;18.10;16.87;;;;;;;9.37;73.63;101074.44;5039587;28;20057;-66
2022/11/27 06:04:05;;;;;;;18.33;17.17;;;;;;;9.38;73.56;101078.06;5037801;28;20046;-65
2022/11/27 06:06:32;;;;;;;16.93;15.77;;;;;;;9.38;73.62;101076.09;5041192;28;20041;-66
2022/11/27 06:08:59;;;;;;;16.70;15.80;;;;;;;9.39;73.93;101065.78;5045380;28;20052;-67
2022/11/27 06:11:26;;;;;;;18.97;17.13;;;;;;;9.48;73.53;101070.66;5047274;28;20057;-67
2022/11/27 06:13:53;;;;;;;20.33;18.67;;;;;;;9.52;73.58;101068.19;5033743;28;20056;-67
2022/11/27 06:16:22;;;;;;;15.37;14.57;;;;;;;9.55;73.21;101064.88;5035169;28;20514;-67
2022/11/27 06:18:51;;;;;;;18.52;17.10;;;;;;;9.58;73.09;101046.78;5047718;28;20119;-67
2022/11/27 06:21:20;;;;;;;17.77;16.57;;;;;;;9.62;72.92;101043.19;5043278;28;20057;-66
2022/11/27 06:23:47;;;;;;;17.43;16.40;;;;;;;9.59;73.23;101038.16;5079578;28;20487;-66
2022/11/27 06:26:20;;;;;;;17.27;15.83;;;;;;;9.61;72.95;101037.91;5032912;28;20522;-66
2022/11/27 06:28:48;;;;;;;17.00;15.60;;;;;;;9.66;73.11;101041.56;5040699;28;20507;-66
2022/11/27 06:31:18;;;;;;;16.30;15.30;;;;;;;9.66;72.69;101035.16;5034297;28;20115;-66
2022/11/27 06:33:49;;;;;;;18.55;17.27;;;;;;;9.78;72.86;101046.13;5046523;28;20049;-66
2022/11/27 06:36:17;;;;;;;16.90;16.00;;;;;;;9.87;72.76;101033.41;5040640;28;20385;-66
2022/11/27 06:38:45;;;;;;;17.47;16.43;;;;;;;9.69;72.83;101010.38;5031994;28;20060;-66
2022/11/27 06:41:17;;;;;;;17.47;16.40;;;;;;;9.77;72.71;101011.00;5032904;28;20068;-65
2022/11/27 06:43:44;;;;;;;17.47;16.33;;;;;;;9.78;72.96;101018.25;5038728;28;20060;-66
2022/11/27 06:46:14;;;;;;;33.27;31.37;;;;;;;9.62;73.24;101009.75;5028540;28;20065;-66
2022/11/27 06:48:43;;;;;;;18.85;17.45;;;;;;;9.56;73.53;101005.22;5041721;28;20446;-66
2022/11/27 06:51:12;;;;;;;18.60;17.17;;;;;;;9.51;73.71;101013.53;5044806;28;20064;-66
2022/11/27 06:53:39;;;;;;;18.90;17.80;;;;;;;9.51;73.81;101018.28;5032203;28;20380;-65
2022/11/27 06:56:12;;;;;;;18.50;17.00;;;;;;;9.55;73.79;101022.22;5046617;28;20045;-65
2022/11/27 06:58:39;;;;;;;17.10;15.97;;;;;;;9.52;73.89;101025.53;5037142;28;20057;-65
2022/11/27 07:01:12;;;;;;;17.57;16.17;;;;;;;9.39;74.01;101021.19;5039479;28;20055;-65
2022/11/27 07:03:39;;;;;;;18.97;17.50;;;;;;;9.51;74.08;101027.47;5032901;28;20057;-65
2022/11/27 07:06:09;;;;;;;18.10;17.00;;;;;;;9.55;74.03;101028.63;5038429;28;20051;-65
2022/11/27 07:08:36;;;;;;;15.52;14.73;;;;;;;9.61;74.05;101022.00;5041123;28;20136;-66
2022/11/27 07:11:17;;;;;;;17.23;16.23;;;;;;;9.60;73.66;101006.34;5040916;28;20504;-66
2022/11/27 07:13:44;;;;;;;17.27;16.37;;;;;;;9.75;73.67;101025.22;5032712;28;20054;-66
2022/11/27 07:16:12;;;;;;;16.03;15.20;;;;;;;9.82;73.20;101016.63;5033726;28;20045;-65
2022/11/27 07:18:41;;;;;;;19.20;17.80;;;;;;;9.97;72.93;101019.56;5032297;28;20049;-66
2022/11/27 07:21:09;;;;;;;15.13;14.33;;;;;;;9.83;72.62;100990.41;5032309;28;20069;-66
2022/11/27 07:23:36;;;;;;;14.43;13.63;;;;;;;10.07;72.28;101007.66;5046984;28;20056;-67
2022/11/27 07:26:06;;;;;;;15.07;14.33;;;;;;;10.09;72.08;101009.06;5031146;28;20049;-65
2022/11/27 07:28:33;;;;;;;16.05;15.15;;;;;;;10.16;72.16;101008.84;5032023;28;20041;-66
2022/11/27 07:31:01;;;;;;;15.07;14.17;;;;;;;10.18;72.17;101013.03;5047374;28;20135;-65
2022/11/27 07:33:27;;;;;;;30.20;28.47;;;;;;;10.10;72.19;101009.91;5046255;28;20049;-66
2022/11/27 07:36:03;;;;;;;16.77;15.77;;;;;;;10.06;71.87;101003.19;5045368;28;20060;-66
2022/11/27 07:38:30;;;;;;;17.80;16.90;;;;;;;10.04;72.09;101000.63;5047466;28;20434;-66
2022/11/27 07:41:01;;;;;;;17.57;16.27;;;;;;;10.08;71.65;100999.00;5037824;28;20057;-65
2022/11/27 07:43:30;;;;;;;17.67;16.47;;;;;;;10.15;71.75;101008.00;5036049;28;20049;-66
2022/11/27 07:45:57;;;;;;;16.50;15.37;;;;;;;10.19;71.69;101000.78;5043072;28;20503;-66
2022/11/27 07:48:24;;;;;;;17.67;16.47;;;;;;;10.21;71.61;100998.53;5039454;28;20522;-65
2022/11/27 07:50:51;;;;;;;18.57;17.43;;;;;;;10.19;71.16;100981.25;5042333;28;20059;-66
2022/11/27 07:53:17;;;;;;;17.83;16.90;;;;;;;10.32;71.37;100974.38;5035598;28;20049;-65
2022/11/27 07:55:44;;;;;;;18.17;16.97;;;;;;;10.40;71.17;100985.03;5035025;28;20495;-66
2022/11/27 07:58:11;;;;;;;20.40;19.30;;;;;;;10.42;71.19;100979.19;5037612;28;20049;-66
2022/11/27 08:00:38;;;;;;;20.53;19.33;;;;;;;10.44;71.03;101000.16;5044515;28;20057;-66
2022/11/27 08:03:05;;;;;;;17.20;16.37;;;;;;;10.41;70.89;100983.09;5044561;28;20119;-66
2022/11/27 08:05:36;;;;;;;29.63;28.23;;;;;;;10.44;71.16;100988.13;5038003;28;20049;-65
2022/11/27 08:08:03;;;;;;;18.80;17.60;;;;;;;10.47;70.84;100984.81;5040307;28;20416;-66
2022/11/27 08:10:33;;;;;;;19.77;18.73;;;;;;;10.42;70.79;100968.84;5041822;28;20044;-66
2022/11/27 08:13:00;;;;;;;17.67;16.60;;;;;;;10.51;70.74;100982.31;5045695;28;20064;-65
2022/11/27 08:15:27;;;;;;;17.73;16.77;;;;;;;10.52;71.01;100976.44;5043117;28;20496;-65
2022/11/27 08:17:54;;;;;;;17.93;17.03;;;;;;;10.64;70.98;100974.31;5043783;28;20045;-67
2022/11/27 08:20:23;;;;;;;19.40;18.03;;;;;;;10.83;70.45;100979.41;5037080;28;20064;-66
2022/11/27 08:22:50;;;;;;;15.20;14.40;;;;;;;10.83;70.22;100985.00;5040860;28;20052;-66
2022/11/27 08:25:16;;;;;;;15.93;14.93;;;;;;;10.95;69.80;100977.25;5035051;28;20045;-66
2022/11/27 08:27:43;;;;;;;16.27;14.97;;;;;;;11.07;69.36;101000.19;5046927;28;20073;-65
2022/11/27 08:30:10;;;;;;;14.83;14.03;;;;;;;11.06;69.34;100997.69;5034709;28;20049;-66
2022/11/27 08:32:39;;;;;;;15.03;14.23;;;;;;;11.05;69.13;100977.28;5045493;28;20049;-66
2022/11/27 08:35:06;;;;;;;15.17;14.17;;;;;;;11.10;69.00;100990.44;5039516;28;20049;-65
2022/11/27 08:37:33;;;;;;;14.17;13.37;;;;;;;11.10;68.56;100982.06;5034373;28;20396;-65
2022/11/27 08:40:00;;;;;;;14.57;13.87;;;;;;;11.22;68.63;100984.63;5034671;28;20049;-66
2022/11/27 08:42:27;;;;;;;14.83;14.03;;;;;;;11.32;68.18;100981.88;5035091;28;20423;-67
2022/11/27 08:44:54;;;;;;;16.70;15.37;;;;;;;11.29;68.19;100974.03;5033386;28;20076;-66
2022/11/27 08:47:21;;;;;;;14.67;13.77;;;;;;;11.20;68.54;100978.47;5036488;28;20045;-66
2022/11/27 08:49:48;;;;;;;15.07;14.17;;;;;;;11.31;68.58;100980.16;5041877;28;20420;-66
2022/11/27 08:52:15;;;;;;;14.53;13.63;;;;;;;11.49;68.05;100976.03;5033750;28;20057;-65
2022/11/27 08:54:41;;;;;;;15.77;14.77;;;;;;;11.66;67.65;100996.19;5033852;28;20060;-66
2022/11/27 08:57:08;;;;;;;15.47;14.47;;;;;;;11.57;67.37;100990.31;5051156;28;20049;-66
2022/11/27 08:59:36;;;;;;;24.77;23.23;;;;;;;11.63;67.46;100977.19;5041265;28;20061;-66
2022/11/27 09:02:03;;;;;;;14.20;13.40;;;;;;;11.45;67.83;100978.50;5035658;28;20519;-66
2022/11/27 09:04:30;;;;;;;14.27;13.33;;;;;;;11.42;67.99;100981.03;5034419;28;20045;-65
2022/11/27 09:06:57;;;;;;;16.43;15.37;;;;;;;11.42;68.18;100986.63;5035882;28;20052;-66
2022/11/27 09:09:24;;;;;;;15.67;14.57;;;;;;;11.49;68.20;100981.63;5044721;28;20081;-67
2022/11/27 09:11:53;;;;;;;17.73;16.63;;;;;;;11.74;67.54;100994.81;5041690;28;20056;-66
2022/11/27 09:14:20;;;;;;;16.50;15.53;;;;;;;11.77;67.06;100983.91;5038368;28;20519;-67
2022/11/27 09:16:47;;;;;;;15.97;15.07;;;;;;;11.80;67.15;100999.31;5039278;28;20053;-66
2022/11/27 09:19:14;;;;;;;16.30;15.30;;;;;;;11.79;67.22;101003.19;5033423;28;20463;-66
2022/11/27 09:21:41;;;;;;;15.10;14.30;;;;;;;11.75;67.02;100999.28;5033101;28;20064;-66
2022/11/27 09:24:08;;;;;;;14.97;14.20;;;;;;;11.82;67.21;101000.69;5038790;28;20493;-66
2022/11/27 09:26:35;;;;;;;15.93;15.03;;;;;;;11.77;67.35;100997.06;5034869;28;20543;-65
2022/11/27 09:29:02;;;;;;;16.70;15.70;;;;;;;11.87;67.31;101008.28;5041150;28;20064;-66
2022/11/27 09:31:29;;;;;;;19.27;17.83;;;;;;;11.96;67.28;101015.00;5034683;28;20456;-66
2022/11/27 09:33:57;;;;;;;16.17;15.23;;;;;;;11.99;67.14;101020.03;5038012;28;20487;-66
2022/11/27 09:36:25;;;;;;;16.13;15.10;;;;;;;12.11;66.89;101030.16;5041497;28;20475;-66
2022/11/27 09:38:53;;;;;;;15.97;15.00;;;;;;;12.14;66.95;101035.19;5032647;28;20049;-65
2022/11/27 09:41:41;;;;;;;16.70;15.60;;;;;;;12.08;66.77;101034.34;5032581;28;20392;-66
2022/11/27 09:44:51;;;;;;;29.43;27.87;;;;;;;12.03;66.83;101048.31;5033998;28;20041;-67
2022/11/27 09:47:18;;;;;;;;;;;;;;;11.83;67.61;101049.13;5028548;28;20049;-67
2022/11/27 09:49:50;;;;;;;33.03;31.37;;;;;;;12.01;67.11;101036.56;5028809;28;20398;-66
2022/11/27 09:53:06;;;;;;;17.23;16.17;;;;;;;12.02;67.20;101036.28;5032605;28;20048;-66
2022/11/27 09:55:42;;;;;;;32.73;31.13;;;;;;;11.99;67.76;101041.59;5020007;28;20068;-66
2022/11/27 09:58:21;;;;;;;26.60;24.97;;;;;;;11.82;67.98;101041.81;5048198;28;20052;-66
2022/11/27 10:00:47;;;;;;;18.77;17.47;;;;;;;11.69;68.70;101050.75;5035926;28;20060;-67
2022/11/27 10:03:19;;;;;;;19.43;18.33;;;;;;;11.57;69.42;101060.22;5038597;28;20053;-65
2022/11/27 10:06:19;;;;;;;20.57;19.30;;;;;;;11.43;70.31;101066.63;5044631;28;20072;-65
2022/11/27 10:09:01;;;;;;;;;;;;;;;11.08;72.57;101049.41;5038259;28;20048;-65
2022/11/27 10:11:37;;;;;;;25.13;23.60;;;;;;;11.14;73.76;101047.47;5049802;28;19924;-65
2022/11/27 10:14:38;;;;;;;21.40;20.20;;;;;;;11.00;76.23;101041.53;5044736;28;20055;-65
2022/11/27 10:17:19;;;;;;;21.77;20.47;;;;;;;10.80;77.09;101013.47;5036160;28;20068;-64
2022/11/27 10:20:11;;;;;;;25.83;24.00;;;;;;;10.95;77.67;101026.72;5041601;28;20060;-64
2022/11/27 10:22:52;;;;;;;21.53;20.13;;;;;;;10.99;79.28;101042.66;5040898;28;20504;-65
2022/11/27 10:25:39;;;;;;;22.17;20.67;;;;;;;11.05;79.86;101060.31;5046690;28;20522;-64
2022/11/27 10:28:09;;;;;;;22.27;20.77;;;;;;;11.08;80.55;101048.59;5040202;28;20045;-64
2022/11/27 10:30:50;;;;;;;23.27;21.73;;;;;;;10.89;82.35;101028.63;5032279;28;20067;-64
2022/11/27 10:33:22;;;;;;;24.40;22.90;;;;;;;10.81;83.60;101045.91;5043646;28;20071;-64
2022/11/27 10:35:50;;;;;;;24.37;22.77;;;;;;;10.87;84.79;101033.63;5035469;28;20056;-64
2022/11/27 10:38:25;;;;;;;25.23;23.57;;;;;;;10.84;85.27;101028.63;5035063;28;20503;-64
2022/11/27 10:41:15;;;;;;;27.30;25.70;;;;;;;10.74;86.33;101046.16;5043389;28;20128;-63
2022/11/27 10:44:33;;;;;;;30.98;28.50;;;;;;;10.65;86.93;101017.03;5032476;28;20171;-65
2022/11/27 10:47:04;;;;;;;30.50;28.50;;;;;;;10.64;88.39;101032.13;5038166;28;20045;-64
2022/11/27 10:49:32;;;;;;;31.13;29.23;;;;;;;10.67;88.41;101026.00;5049354;28;20056;-63
2022/11/27 10:51:59;;;;;;;29.23;27.50;;;;;;;10.66;88.93;101052.22;5045043;28;20401;-63
2022/11/27 10:54:31;;;;;;;29.13;27.33;;;;;;;10.71;89.16;101065.41;5045267;28;20053;-64
2022/11/27 10:57:06;;;;;;;30.67;28.87;;;;;;;10.73;89.74;101049.19;5038466;28;20044;-63
2022/11/27 10:59:40;;;;;;;31.53;29.53;;;;;;;10.80;89.59;101066.56;5033035;28;20053;-64
2022/11/27 11:02:43;;;;;;;29.83;27.80;;;;;;;10.79;89.28;101073.28;5038388;28;20049;-64
2022/11/27 11:05:21;;;;;;;30.80;28.80;;;;;;;10.86;89.11;101083.09;5037454;28;20172;-64
2022/11/27 11:08:19;;;;;;;47.43;44.67;;;;;;;10.91;89.37;101071.13;5034130;28;20496;-64
2022/11/27 11:11:01;;;;;;;53.27;50.17;;;;;;;10.90;89.80;101075.00;5032486;28;20076;-64
2022/11/27 11:13:32;;;;;;;46.57;43.50;;;;;;;10.99;89.66;101078.97;5031537;28;20484;-64
2022/11/27 11:16:04;;;;;;;29.40;27.60;;;;;;;11.05;89.98;101080.69;5038195;28;20045;-64
2022/11/27 11:18:41;;;;;;;29.40;27.40;;;;;;;11.11;90.09;101075.97;5032419;28;20037;-64
2022/11/27 11:21:39;;;;;;;31.73;29.33;;;;;;;11.02;90.04;101072.84;5037717;28;20053;-64
2022/11/27 11:24:22;;;;;;;29.08;26.90;;;;;;;11.16;90.23;101092.78;5039625;28;20061;-64
2022/11/27 11:26:58;;;;;;;30.50;28.10;;;;;;;11.25;89.98;101088.34;5043677;28;20048;-64
2022/11/27 11:29:34;;;;;;;27.67;25.97;;;;;;;11.31;90.30;101072.44;5042128;28;20044;-64
2022/11/27 11:32:14;;;;;;;28.53;26.83;;;;;;;11.31;90.42;101055.66;5044941;28;20053;-64
2022/11/27 11:34:47;;;;;;;28.25;26.23;;;;;;;11.33;91.08;101050.63;5047289;28;20073;-64